Time;durP1;ratioP1;P1;durP2;ratioP2;P2;SDS_P1;SDS_P2;PMS_P1;PMS_P2;Temp;Humidity;BMP_temperature;BMP_pressure;BME280_temperature;BME280_humidity;BME280_pressure;Samples;Min_cycle;Max_cycle;Signal;HPM_P1;HPM_P2
2021/03/13 00:00:17;;;;;;;3.13;0.63;;;;;;;7.45;85.02;97972.44;6234382;23;19958;-74
2021/03/13 00:03:03;;;;;;;;;;;;;;;;;;;;;
2021/03/13 00:05:43;;;;;;;7.82;0.40;;;;;;;7.58;85.99;97983.59;6241063;23;20529;-76
2021/03/13 00:08:46;;;;;;;5.57;0.50;;;;;;;7.63;85.68;97954.38;6236467;23;20063;-75
2021/03/13 00:11:26;;;;;;;4.50;0.80;;;;;;;7.71;85.39;97980.06;6233017;23;20122;-75
2021/03/13 00:14:02;;;;;;;11.02;0.95;;;;;;;7.71;85.76;97965.63;6213527;23;20402;-73
2021/03/13 00:16:37;;;;;;;10.82;0.98;;;;;;;7.69;85.60;97990.41;6242075;23;19996;-75
2021/03/13 00:26:44;;;;;;;2.95;0.30;;;;;;;7.64;84.71;97994.06;6202048;23;20087;-75
2021/03/13 00:29:04;;;;;;;11.80;3.35;;;;;;;7.67;82.87;98008.97;6232128;22;20099;-78
2021/03/13 00:31:30;;;;;;;1.52;0.32;;;;;;;7.98;82.71;98089.91;6218408;23;20008;-79
2021/03/13 00:33:55;;;;;;;2.42;0.20;;;;;;;7.90;80.35;98047.91;6264612;22;20365;-76
2021/03/13 00:36:20;;;;;;;1.88;0.10;;;;;;;7.33;82.39;98042.88;6217257;23;20012;-76
2021/03/13 00:39:14;;;;;;;2.35;0.10;;;;;;;7.11;83.93;98051.69;6215950;23;20008;-77
2021/03/13 00:41:49;;;;;;;2.17;0.20;;;;;;;6.88;84.29;98048.03;6202878;23;20303;-76
2021/03/13 00:44:27;;;;;;;;;;;;;;;;;;;;;
2021/03/13 00:46:55;;;;;;;0.47;0.20;;;;;;;6.70;85.68;97998.13;6241224;23;20405;-75
2021/03/13 00:49:21;;;;;;;2.22;0.50;;;;;;;6.53;85.49;97979.72;6217079;23;20084;-76
2021/03/13 00:51:46;;;;;;;0.68;0.20;;;;;;;6.56;86.08;97981.84;6207802;23;20032;-74
2021/03/13 00:54:19;;;;;;;1.77;0.30;;;;;;;6.80;86.10;97990.63;6244792;23;20084;-75
2021/03/13 00:56:50;;;;;;;1.77;0.10;;;;;;;6.61;85.92;97981.72;6216429;23;20012;-76
2021/03/13 00:59:18;;;;;;;1.00;0.20;;;;;;;6.46;86.19;97948.31;6230180;23;20008;-75
2021/03/13 01:01:51;;;;;;;3.50;0.60;;;;;;;6.64;85.52;97994.69;6241241;23;20008;-75
2021/03/13 01:04:22;;;;;;;2.05;0.10;;;;;;;6.45;86.03;97959.47;6211489;23;20015;-75
2021/03/13 01:06:47;;;;;;;2.15;0.40;;;;;;;6.59;86.26;97967.66;6213748;23;20004;-74
2021/03/13 01:09:18;;;;;;;3.58;0.40;;;;;;;6.52;86.44;97951.75;6242753;23;20031;-75
2021/03/13 01:11:43;;;;;;;0.82;0.20;;;;;;;6.58;86.42;97961.41;6202504;23;20353;-74
2021/03/13 01:14:10;;;;;;;2.80;0.40;;;;;;;6.63;85.87;97983.03;6217085;23;20014;-76
2021/03/13 01:16:41;;;;;;;6.88;0.65;;;;;;;6.52;85.27;97970.75;6213431;23;20419;-76
2021/03/13 01:19:09;;;;;;;4.10;0.43;;;;;;;6.65;86.27;97982.75;6213929;23;20014;-74
2021/03/13 01:21:38;;;;;;;2.88;0.50;;;;;;;6.77;85.42;97993.13;6193360;23;20110;-75
2021/03/13 01:24:04;;;;;;;8.82;1.45;;;;;;;6.80;85.77;97993.34;6241199;23;20007;-76
2021/03/13 01:26:30;;;;;;;3.83;0.65;;;;;;;6.76;85.43;97976.03;6211492;23;20000;-77
2021/03/13 01:29:16;;;;;;;7.35;0.73;;;;;;;6.59;85.78;97943.22;6214747;23;20012;-77
2021/03/13 01:31:48;;;;;;;9.40;0.90;;;;;;;6.67;85.46;97944.41;6240239;23;20008;-77
2021/03/13 01:34:40;;;;;;;7.82;0.77;;;;;;;6.73;86.15;97983.94;6209674;23;20442;-74
2021/03/13 01:37:15;;;;;;;4.65;0.90;;;;;;;6.76;84.82;97950.75;6217861;23;20035;-76
2021/03/13 01:39:41;;;;;;;7.38;1.08;;;;;;;6.86;85.55;97974.19;6239364;23;20004;-74
2021/03/13 01:42:22;;;;;;;;;;;;;;;;;;;;;
2021/03/13 01:44:47;;;;;;;5.07;1.00;;;;;;;6.82;84.93;97974.00;6238854;23;20087;-73
2021/03/13 01:47:27;;;;;;;14.52;1.23;;;;;;;6.58;85.60;97938.88;6207762;23;20450;-73
2021/03/13 01:50:06;;;;;;;9.73;1.33;;;;;;;6.69;85.42;97966.63;6236695;23;20011;-74
2021/03/13 01:52:35;;;;;;;10.65;1.90;;;;;;;6.67;85.75;97958.78;6213512;23;20007;-75
2021/03/13 01:55:20;;;;;;;;;;;;;;;;;;;;;
2021/03/13 01:57:54;;;;;;;;;;;;;;;6.79;85.06;97991.72;6241024;23;20099;-76
2021/03/13 02:00:24;;;;;;;8.88;1.35;;;;;;;6.60;84.86;97961.09;6215364;23;19930;-75
2021/03/13 02:03:01;;;;;;;6.88;1.83;;;;;;;6.48;84.46;97953.44;6212597;23;20031;-75
2021/03/13 02:05:42;;;;;;;6.20;1.15;;;;;;;6.42;85.03;97931.00;6214639;23;20012;-77
2021/03/13 02:08:26;;;;;;;15.40;1.80;;;;;;;6.62;85.40;97976.00;6216767;23;20000;-75
2021/03/13 02:10:58;;;;;;;23.42;2.10;;;;;;;6.57;85.35;97964.41;6213733;23;20011;-74
2021/03/13 02:13:31;;;;;;;11.75;2.35;;;;;;;6.68;85.50;97973.19;6216201;23;20004;-77
2021/03/13 02:16:24;;;;;;;14.80;1.30;;;;;;;6.64;85.44;97984.66;6239001;23;20693;-76
2021/03/13 02:18:58;;;;;;;10.52;1.85;;;;;;;6.67;85.70;97977.81;6221962;23;20106;-77
2021/03/13 02:21:36;;;;;;;26.27;3.15;;;;;;;6.65;85.25;97958.31;6211184;23;20004;-76
2021/03/13 02:24:23;;;;;;;25.48;2.55;;;;;;;6.72;85.88;97980.44;6240761;23;20004;-76
2021/03/13 02:27:02;;;;;;;10.93;1.77;;;;;;;6.59;84.79;97937.78;6216818;23;20015;-76
2021/03/13 02:29:44;;;;;;;16.98;1.48;;;;;;;6.67;84.86;97972.38;6239927;22;20024;-74
2021/03/13 02:32:17;;;;;;;29.38;1.80;;;;;;;6.61;85.25;97952.69;6217470;23;20022;-73
2021/03/13 02:34:44;;;;;;;24.63;2.65;;;;;;;6.70;85.38;97922.91;6234415;23;20334;-78
2021/03/13 02:37:23;;;;;;;19.45;3.58;;;;;;;6.78;84.36;97946.63;6247633;23;20004;-79
2021/03/13 02:40:08;;;;;;;17.30;2.42;;;;;;;6.61;84.90;97935.56;6259241;23;19988;-78
2021/03/13 02:42:44;;;;;;;21.48;2.60;;;;;;;6.90;84.94;97969.78;6246499;23;20012;-77
2021/03/13 02:45:14;;;;;;;19.77;3.33;;;;;;;6.78;85.28;97954.78;6216671;23;20423;-80
2021/03/13 02:47:44;;;;;;;20.85;2.65;;;;;;;6.84;84.83;97973.72;6198100;23;20012;-80
2021/03/13 02:50:14;;;;;;;18.77;2.65;;;;;;;6.98;85.04;98031.59;6244108;23;20427;-79
2021/03/13 02:52:41;;;;;;;32.78;3.17;;;;;;;6.96;83.33;98012.03;6216836;23;20020;-81
2021/03/13 02:55:12;;;;;;;23.58;2.70;;;;;;;6.90;83.06;98008.63;6215815;23;20462;-79
2021/03/13 02:58:00;;;;;;;23.33;2.90;;;;;;;6.52;82.87;97964.53;6214355;23;20035;-78
2021/03/13 03:00:36;;;;;;;28.15;3.30;;;;;;;6.41;82.70;97986.44;6240180;23;20019;-79
2021/03/13 03:03:05;;;;;;;40.00;3.13;;;;;;;6.35;83.30;97990.34;6210670;23;20430;-81
2021/03/13 03:05:33;;;;;;;34.13;5.00;;;;;;;6.19;83.95;97983.53;6217841;23;20399;-78
2021/03/13 03:08:07;;;;;;;20.48;3.63;;;;;;;6.32;84.20;97971.13;6242551;23;20000;-78
2021/03/13 03:10:37;;;;;;;25.92;2.45;;;;;;;6.44;83.45;97969.53;6217546;23;20066;-79
2021/03/13 03:13:33;;;;;;;;;;;;;;;;;;;;;
2021/03/13 03:16:01;;;;;;;23.77;2.65;;;;;;;6.64;83.33;97994.69;6242696;23;20078;-79
2021/03/13 03:18:48;;;;;;;12.75;2.25;;;;;;;6.36;83.42;97956.63;6214679;23;20090;-77
2021/03/13 03:21:19;;;;;;;32.15;4.22;;;;;;;6.53;83.84;97977.81;6242205;23;20008;-78
2021/03/13 03:23:45;;;;;;;15.82;2.55;;;;;;;6.57;83.94;97983.41;6240562;23;20415;-79
2021/03/13 03:26:38;;;;;;;29.63;4.70;;;;;;;6.56;82.37;97974.47;6218901;23;20419;-78
2021/03/13 03:29:11;;;;;;;32.53;3.20;;;;;;;6.27;82.12;97963.88;6201368;23;20028;-80
2021/03/13 03:31:57;;;;;;;17.23;2.97;;;;;;;6.08;82.18;97964.72;6212259;23;20013;-80
2021/03/13 03:34:36;;;;;;;;;;;;;;;;;;;;;
2021/03/13 03:37:08;;;;;;;23.25;2.08;;;;;;;6.13;83.24;97984.72;6209391;23;20057;-76
2021/03/13 03:39:34;;;;;;;29.33;2.75;;;;;;;6.32;82.45;98012.63;6214051;23;20008;-80
2021/03/13 03:42:01;;;;;;;19.98;2.80;;;;;;;6.04;83.49;97977.25;6209229;23;20004;-78
2021/03/13 03:44:27;;;;;;;19.88;2.72;;;;;;;5.94;83.55;97977.38;6189738;23;20009;-80
2021/03/13 03:47:10;;;;;;;23.48;2.88;;;;;;;5.86;84.03;97969.94;6186615;23;20008;-77
2021/03/13 03:50:03;;;;;;;;;;;;;;;;;;;;;
2021/03/13 03:52:33;;;;;;;27.90;2.92;;;;;;;5.99;82.67;97969.22;6207679;23;20359;-77
2021/03/13 03:55:08;;;;;;;18.73;3.63;;;;;;;5.94;81.72;97969.25;6188676;23;20004;-77
2021/03/13 03:57:38;;;;;;;36.53;4.20;;;;;;;5.67;82.44;97962.59;6214913;23;20000;-77
2021/03/13 04:00:27;;;;;;;38.65;3.40;;;;;;;5.56;82.48;97953.00;6187497;23;20009;-77
2021/03/13 04:03:07;;;;;;;29.60;2.75;;;;;;;5.47;83.96;97957.47;6215031;23;20092;-79
2021/03/13 04:05:52;;;;;;;27.48;3.58;;;;;;;5.41;83.19;97962.16;6216156;23;20004;-79
2021/03/13 04:08:18;;;;;;;40.13;5.80;;;;;;;5.63;83.59;97977.06;6217032;23;19997;-81
2021/03/13 04:10:50;;;;;;;39.58;3.63;;;;;;;5.59;83.81;97993.09;6261191;22;20091;-79
2021/03/13 04:13:33;;;;;;;29.65;3.53;;;;;;;5.53;84.11;97983.41;6213678;23;20413;-79
2021/03/13 04:15:59;;;;;;;20.05;3.10;;;;;;;5.58;84.02;97953.53;6214528;23;20001;-77
2021/03/13 04:18:25;;;;;;;31.27;3.83;;;;;;;5.69;84.72;97960.41;6214610;23;20080;-78
2021/03/13 04:21:01;;;;;;;;;;;;;;;;;;;;;
2021/03/13 04:23:29;;;;;;;33.17;4.57;;;;;;;6.07;83.92;97986.72;6214024;23;20065;-77
2021/03/13 04:25:58;;;;;;;28.02;2.45;;;;;;;5.97;84.46;97976.81;6202557;23;20482;-76
2021/03/13 04:28:33;;;;;;;;;;;;;;;;;;;;;
2021/03/13 04:31:11;;;;;;;;;;;;;;;;;;;;;
2021/03/13 04:33:48;;;;;;;25.88;3.58;;;;;;;6.25;84.15;97966.06;6245613;23;20486;-78
2021/03/13 04:36:14;;;;;;;56.05;4.47;;;;;;;6.31;83.09;97962.19;6267322;22;20091;-78
2021/03/13 04:38:40;;;;;;;26.08;2.50;;;;;;;6.49;84.15;97987.63;6214678;23;20522;-78
2021/03/13 04:41:09;;;;;;;27.10;2.80;;;;;;;6.52;82.09;97969.97;6193525;23;20019;-78
2021/03/13 04:43:43;;;;;;;14.23;1.73;;;;;;;6.61;82.66;97989.88;6218919;23;19996;-79
2021/03/13 04:46:09;;;;;;;20.27;1.92;;;;;;;6.53;80.82;97994.09;6215126;23;20004;-78
2021/03/13 04:48:45;;;;;;;;;;;;;;;;;;;;;
2021/03/13 04:51:14;;;;;;;9.88;1.75;;;;;;;6.28;82.31;97992.63;6245177;23;20076;-79
2021/03/13 04:53:42;;;;;;;12.43;1.95;;;;;;;6.04;82.17;97968.31;6206644;23;20423;-80
2021/03/13 04:56:15;;;;;;;15.65;2.40;;;;;;;5.98;83.29;97983.88;6246064;23;20007;-78
2021/03/13 04:58:45;;;;;;;18.25;2.38;;;;;;;5.95;82.89;97981.72;6219531;23;20065;-77
2021/03/13 05:01:13;;;;;;;6.72;1.77;;;;;;;6.23;81.94;98027.97;6218541;23;20103;-78
2021/03/13 05:03:39;;;;;;;10.13;1.25;;;;;;;5.91;82.95;98005.94;6219656;23;20035;-78
2021/03/13 05:06:07;;;;;;;5.80;1.13;;;;;;;5.73;84.44;97983.13;6244724;23;20350;-75
2021/03/13 05:08:33;;;;;;;10.80;1.48;;;;;;;5.89;83.89;98007.31;6244629;23;20070;-77
2021/03/13 05:11:01;;;;;;;22.63;2.28;;;;;;;5.80;83.72;97990.06;6241030;23;20415;-77
2021/03/13 05:13:34;;;;;;;10.80;1.73;;;;;;;5.73;83.17;97988.53;6245092;23;20007;-77
2021/03/13 05:16:07;;;;;;;14.25;2.67;;;;;;;5.74;83.34;98011.06;6217730;23;20034;-77
2021/03/13 05:18:33;;;;;;;20.60;2.55;;;;;;;5.76;83.40;98004.22;6231301;23;20098;-77
2021/03/13 05:21:09;;;;;;;;;;;;;;;;;;;;;
2021/03/13 05:23:35;;;;;;;17.48;1.75;;;;;;;5.57;84.12;98008.84;6196068;23;20084;-78
2021/03/13 05:26:08;;;;;;;14.25;1.98;;;;;;;5.52;83.65;98003.47;6213137;23;20008;-78
2021/03/13 05:28:36;;;;;;;22.95;2.33;;;;;;;5.72;83.90;98038.47;6209192;23;20075;-77
2021/03/13 05:31:01;;;;;;;19.90;2.97;;;;;;;5.84;84.48;98058.91;6240970;23;20380;-77
2021/03/13 05:33:27;;;;;;;28.85;2.15;;;;;;;5.88;84.73;98040.97;6237899;23;20091;-78
2021/03/13 05:35:53;;;;;;;17.67;2.13;;;;;;;5.89;83.88;98035.25;6216693;23;20680;-75
2021/03/13 05:38:21;;;;;;;19.80;2.22;;;;;;;5.90;84.61;98033.34;6214872;23;20324;-79
2021/03/13 05:40:54;;;;;;;15.60;2.40;;;;;;;5.87;84.25;98020.34;6184424;23;20043;-79
2021/03/13 05:43:29;;;;;;;17.52;2.67;;;;;;;5.71;84.39;97995.34;6215086;23;20004;-79
2021/03/13 05:45:55;;;;;;;8.93;1.52;;;;;;;6.19;84.27;98037.81;6269638;22;20011;-77
2021/03/13 05:48:23;;;;;;;16.38;1.83;;;;;;;6.01;84.47;98010.41;6247217;23;20095;-79
2021/03/13 05:50:52;;;;;;;27.17;2.28;;;;;;;6.27;84.40;98048.00;6222874;23;20019;-77
2021/03/13 05:53:28;;;;;;;;;;;;;;;;;;;;;
2021/03/13 05:55:58;;;;;;;13.00;2.08;;;;;;;6.33;84.08;98027.03;6250124;23;20071;-78
2021/03/13 05:58:36;;;;;;;8.30;1.13;;;;;;;6.15;84.33;98015.06;6242213;23;20370;-78
2021/03/13 06:01:02;;;;;;;21.67;2.90;;;;;;;6.21;83.80;98035.63;6237956;22;20028;-77
2021/03/13 06:03:32;;;;;;;10.15;1.75;;;;;;;6.32;84.86;98058.78;6246305;23;20039;-79
2021/03/13 06:06:08;;;;;;;9.20;1.70;;;;;;;6.49;83.75;98052.00;6266573;22;20026;-78
2021/03/13 06:08:38;;;;;;;10.68;1.35;;;;;;;6.43;83.07;98016.78;6211283;23;20031;-75
2021/03/13 06:11:11;;;;;;;20.45;1.70;;;;;;;6.58;81.11;98066.50;6244146;23;20083;-78
2021/03/13 06:13:57;;;;;;;12.40;2.20;;;;;;;6.29;80.87;98041.19;6238881;23;19996;-77
2021/03/13 06:16:22;;;;;;;22.30;2.38;;;;;;;6.02;81.79;98032.94;6241528;23;20055;-78
2021/03/13 06:18:48;;;;;;;13.98;1.50;;;;;;;6.17;83.48;98083.44;6241143;23;20008;-76
2021/03/13 06:21:31;;;;;;;10.88;1.63;;;;;;;5.92;83.77;98069.91;6245881;22;20008;-76
2021/03/13 06:24:23;;;;;;;10.02;2.15;;;;;;;6.09;84.94;98093.84;6244301;23;20008;-77
2021/03/13 06:27:00;;;;;;;16.67;2.50;;;;;;;6.07;85.23;98096.03;6213852;23;20015;-77
2021/03/13 06:29:27;;;;;;;13.48;1.63;;;;;;;6.06;84.43;98077.34;6235237;22;20084;-77
2021/03/13 06:32:11;;;;;;;18.80;2.17;;;;;;;6.06;83.97;98086.31;6210537;23;20027;-77
2021/03/13 06:34:38;;;;;;;18.83;2.38;;;;;;;6.10;84.58;98100.91;6213598;23;20036;-77
2021/03/13 06:37:31;;;;;;;12.90;1.40;;;;;;;6.15;84.41;98118.19;6209975;23;20012;-79
2021/03/13 06:39:59;;;;;;;7.55;0.93;;;;;;;5.89;84.76;98072.41;6209571;23;20004;-77
2021/03/13 06:42:28;;;;;;;18.02;2.85;;;;;;;6.09;84.65;98099.28;6217042;23;20000;-78
2021/03/13 06:44:56;;;;;;;20.38;2.05;;;;;;;6.38;84.49;98121.94;6218630;23;20000;-77
2021/03/13 06:47:55;;;;;;;18.77;2.33;;;;;;;6.36;84.47;98114.09;6246491;23;20010;-78
2021/03/13 06:50:21;;;;;;;19.17;3.63;;;;;;;6.49;83.61;98134.25;6180262;23;20118;-78
2021/03/13 06:53:41;;;;;;;17.00;1.95;;;;;;;6.51;84.14;98136.69;6245242;23;20000;-76
2021/03/13 06:56:13;;;;;;;23.23;4.55;;;;;;;6.62;83.50;98121.84;6236647;23;20012;-78
2021/03/13 06:58:41;;;;;;;15.52;2.17;;;;;;;6.76;83.38;98127.31;6267453;22;20430;-77
2021/03/13 07:01:08;;;;;;;24.85;2.35;;;;;;;6.72;84.41;98129.81;6188912;23;20055;-77
2021/03/13 07:04:09;;;;;;;;;;;;;;;;;;;;;
2021/03/13 07:06:44;;;;;;;23.00;3.13;;;;;;;6.69;83.11;98126.88;6244568;23;20075;-78
2021/03/13 07:09:52;;;;;;;13.13;2.00;;;;;;;7.03;81.38;98153.75;6218970;23;20031;-77
2021/03/13 07:12:40;;;;;;;18.95;2.42;;;;;;;6.96;81.41;98128.88;6267591;22;20019;-77
2021/03/13 07:15:31;;;;;;;21.63;2.60;;;;;;;7.34;79.56;98136.91;6221253;23;20030;-76
2021/03/13 07:18:08;;;;;;;11.77;1.80;;;;;;;7.24;81.88;98170.53;6215762;23;20008;-76
2021/03/13 07:20:39;;;;;;;13.98;1.63;;;;;;;7.02;83.14;98149.41;6244307;23;20054;-76
2021/03/13 07:23:30;;;;;;;18.42;2.95;;;;;;;7.00;80.69;98165.22;6217666;23;20004;-75
2021/03/13 07:25:55;;;;;;;8.40;2.20;;;;;;;7.02;78.62;98164.94;6216943;23;20004;-77
2021/03/13 07:28:33;;;;;;;21.10;1.75;;;;;;;6.73;80.53;98193.91;6216021;22;20008;-77
2021/03/13 07:34:19;;;;;;;14.77;1.70;;;;;;;6.69;82.65;98203.75;6229739;23;20007;-76
2021/03/13 07:39:43;;;;;;;17.40;1.70;;;;;;;6.67;83.38;98189.66;6241124;23;20089;-77
2021/03/13 07:42:40;;;;;;;10.75;1.55;;;;;;;7.00;83.71;98230.44;6219224;23;20706;-79
2021/03/13 07:49:02;;;;;;;9.85;2.35;;;;;;;6.87;83.71;98195.88;6246745;23;20004;-76
2021/03/13 07:51:39;;;;;;;;;;;;;;;;;;;;;
2021/03/13 07:54:30;;;;;;;16.30;1.60;;;;;;;7.82;80.35;98209.16;6246455;23;20088;-78
2021/03/13 07:57:24;;;;;;;19.23;2.78;;;;;;;9.05;79.12;98262.94;6221609;23;20008;-75
2021/03/13 08:00:10;;;;;;;31.58;1.95;;;;;;;9.75;78.93;98244.31;6268483;22;20427;-75
2021/03/13 08:02:45;;;;;;;12.10;1.45;;;;;;;10.30;77.01;98224.75;6217512;23;20012;-77
2021/03/13 08:05:59;;;;;;;15.23;1.77;;;;;;;10.83;76.69;98230.31;6217888;23;20042;-74
2021/03/13 08:08:46;;;;;;;13.02;1.60;;;;;;;11.67;74.08;98277.38;6217094;23;20008;-73
2021/03/13 08:11:27;;;;;;;9.40;1.63;;;;;;;11.61;73.65;98292.38;6221591;23;20004;-78
2021/03/13 08:14:23;;;;;;;;;;;;;;;;;;;;;
2021/03/13 08:17:04;;;;;;;16.85;2.20;;;;;;;9.64;72.37;98294.81;6244436;23;20071;-76
2021/03/13 08:19:44;;;;;;;21.35;1.38;;;;;;;8.80;78.10;98292.41;6216335;23;20421;-77
2021/03/13 08:22:33;;;;;;;;;;;;;;;;;;;;;
2021/03/13 08:25:28;;;;;;;23.95;1.40;;;;;;;10.03;76.85;98302.28;6235379;23;20083;-76
2021/03/13 08:28:34;;;;;;;24.65;3.00;;;;;;;10.44;71.92;98335.84;6214998;23;20015;-77
2021/03/13 08:31:22;;;;;;;17.77;1.50;;;;;;;10.24;72.75;98316.16;6209997;23;20023;-76
2021/03/13 08:34:10;;;;;;;18.80;1.90;;;;;;;10.61;77.13;98341.38;6241560;23;20000;-76
2021/03/13 08:36:52;;;;;;;;;;;;;;;;;;;;;
2021/03/13 08:39:38;;;;;;;26.35;2.13;;;;;;;12.16;71.09;98333.81;6241410;23;20867;-75
2021/03/13 08:42:14;;;;;;;21.33;2.47;;;;;;;12.22;74.03;98337.97;6216719;23;20028;-74
2021/03/13 08:44:44;;;;;;;15.95;2.22;;;;;;;12.75;70.48;98338.56;6215231;23;20004;-75
2021/03/13 08:47:15;;;;;;;9.73;1.60;;;;;;;12.79;69.42;98377.09;6213210;23;20011;-75
2021/03/13 08:49:47;;;;;;;11.38;2.30;;;;;;;13.01;69.31;98374.06;6215815;23;20069;-75
2021/03/13 08:52:23;;;;;;;14.13;1.85;;;;;;;12.98;67.23;98358.28;6240959;23;20008;-75
2021/03/13 08:54:59;;;;;;;8.30;1.92;;;;;;;13.08;69.74;98390.00;6243128;23;20378;-75
2021/03/13 08:57:27;;;;;;;;;;;;;;;13.42;71.38;98399.19;6244101;23;19999;-74
2021/03/13 08:59:56;;;;;;;11.25;2.00;;;;;;;13.44;63.38;98385.91;6217903;23;19985;-75
2021/03/13 09:02:36;;;;;;;8.80;1.77;;;;;;;12.26;68.15;98410.19;6241967;23;20004;-77
2021/03/13 09:05:14;;;;;;;5.10;1.42;;;;;;;11.73;71.05;98408.66;6219596;23;20004;-77
2021/03/13 09:07:44;;;;;;;12.48;1.60;;;;;;;11.38;70.29;98389.47;6221454;23;20004;-74
2021/03/13 09:10:20;;;;;;;18.70;2.47;;;;;;;12.02;71.52;98417.00;6223582;23;20636;-76
2021/03/13 09:12:51;;;;;;;11.57;1.70;;;;;;;13.00;65.57;98413.63;6211760;23;20080;-73
2021/03/13 09:15:19;;;;;;;5.43;0.98;;;;;;;13.35;65.07;98423.63;6218543;23;20094;-77
2021/03/13 09:17:45;;;;;;;17.30;1.38;;;;;;;13.52;69.30;98433.66;6214459;23;20012;-77
2021/03/13 09:20:17;;;;;;;17.15;2.20;;;;;;;14.05;67.52;98432.09;6244900;23;20011;-75
2021/03/13 09:22:47;;;;;;;9.55;1.27;;;;;;;14.35;67.69;98417.41;6241798;23;20008;-74
2021/03/13 09:25:24;;;;;;;17.88;2.42;;;;;;;13.91;64.33;98442.56;6218084;23;20012;-75
2021/03/13 09:28:01;;;;;;;;;;;;;;;;;;;;;
2021/03/13 09:30:35;;;;;;;9.20;3.63;;;;;;;11.82;66.50;98445.03;6242588;22;20095;-76
2021/03/13 09:33:03;;;;;;;7.65;1.85;;;;;;;11.04;66.80;98453.94;6240625;23;20003;-74
2021/03/13 09:35:29;;;;;;;14.77;1.90;;;;;;;11.19;69.03;98478.13;6210895;23;20460;-76
2021/03/13 09:37:55;;;;;;;11.52;1.55;;;;;;;11.81;69.44;98492.72;6211776;23;20008;-76
2021/03/13 09:40:26;;;;;;;17.13;2.35;;;;;;;12.61;71.36;98497.03;6263168;22;20019;-77
2021/03/13 09:42:53;;;;;;;4.47;1.10;;;;;;;13.46;68.02;98473.44;6234386;23;20032;-75
2021/03/13 09:45:25;;;;;;;9.23;1.80;;;;;;;14.30;66.63;98493.47;6239107;23;20015;-78
2021/03/13 09:47:54;;;;;;;23.23;2.78;;;;;;;14.61;64.58;98480.38;6211643;23;20012;-75
2021/03/13 09:51:02;;;;;;;;;;;;;;;;;;;;;
2021/03/13 09:53:37;;;;;;;10.40;1.75;;;;;;;14.34;63.48;98482.59;6236471;23;20091;-73
2021/03/13 09:56:13;;;;;;;;;;;;;;;;;;;;;
2021/03/13 09:58:42;;;;;;;14.30;2.45;;;;;;;14.60;65.61;98492.50;6244155;23;20079;-76
2021/03/13 10:01:08;;;;;;;12.23;2.13;;;;;;;15.19;66.07;98497.66;6215806;23;20087;-74
2021/03/13 10:04:19;;;;;;;5.00;1.27;;;;;;;15.51;58.97;98528.19;6244526;23;20042;-74
2021/03/13 10:06:52;;;;;;;7.45;1.20;;;;;;;14.29;59.02;98546.84;6216618;23;20439;-74
2021/03/13 10:09:29;;;;;;;8.60;0.82;;;;;;;12.60;57.16;98599.59;6212222;23;20016;-76
2021/03/13 10:12:12;;;;;;;;;;;;;;;;;;;;;
2021/03/13 10:14:41;;;;;;;3.63;1.00;;;;;;;12.61;60.66;98524.44;6240021;23;20084;-74
2021/03/13 10:17:07;;;;;;;8.48;0.85;;;;;;;12.46;62.33;98528.50;6213926;23;19996;-74
2021/03/13 10:19:54;;;;;;;6.13;1.23;;;;;;;12.99;63.86;98524.47;6215653;23;20008;-75
2021/03/13 10:22:24;;;;;;;9.18;1.55;;;;;;;13.02;60.53;98529.31;6210905;23;20000;-75
2021/03/13 10:25:14;;;;;;;13.05;1.25;;;;;;;13.76;60.08;98524.44;6244400;23;20012;-73
2021/03/13 10:27:39;;;;;;;5.28;2.05;;;;;;;14.20;59.75;98521.38;6207325;23;20008;-78
2021/03/13 10:30:08;;;;;;;6.30;0.98;;;;;;;15.00;58.29;98547.00;6231463;22;20016;-73
2021/03/13 10:32:47;;;;;;;4.15;1.30;;;;;;;15.56;54.37;98518.09;6216357;23;20004;-74
2021/03/13 10:35:18;;;;;;;7.55;1.40;;;;;;;15.78;55.67;98514.88;6236199;23;20535;-74
2021/03/13 10:38:03;;;;;;;9.23;1.45;;;;;;;15.97;57.78;98528.03;6215222;23;20064;-76
2021/03/13 10:41:04;;;;;;;;;;;;;;;;;;;;;
2021/03/13 10:43:36;;;;;;;3.92;1.15;;;;;;;16.37;56.31;98540.22;6240950;23;20075;-76
2021/03/13 10:46:05;;;;;;;7.50;1.20;;;;;;;16.93;54.47;98572.53;6255809;22;20095;-75
2021/03/13 10:49:04;;;;;;;4.57;0.85;;;;;;;16.41;49.08;98563.19;6241726;23;20004;-75
2021/03/13 10:51:54;;;;;;;8.10;1.58;;;;;;;14.00;50.75;98546.91;6179262;23;20059;-74
2021/03/13 10:54:55;;;;;;;5.20;1.17;;;;;;;12.17;50.41;98587.53;6240401;23;19996;-73
2021/03/13 10:57:21;;;;;;;5.60;1.40;;;;;;;11.02;55.00;98555.44;6237675;23;20035;-76
2021/03/13 10:59:46;;;;;;;9.18;1.92;;;;;;;11.21;54.34;98579.81;6266275;22;20004;-72
2021/03/13 11:02:14;;;;;;;5.55;1.35;;;;;;;11.83;62.23;98567.16;6213323;23;20076;-76
2021/03/13 11:04:53;;;;;;;;;;;;;;;;;;;;;
2021/03/13 11:07:24;;;;;;;8.48;1.08;;;;;;;14.60;56.05;98586.84;6242458;23;20100;-76
2021/03/13 11:09:51;;;;;;;6.03;0.70;;;;;;;15.45;57.41;98595.69;6235198;23;20012;-75
2021/03/13 11:12:17;;;;;;;5.20;1.85;;;;;;;16.47;58.74;98596.84;6240407;23;20004;-75
2021/03/13 11:14:42;;;;;;;4.15;1.15;;;;;;;17.21;46.42;98627.69;6264624;22;20065;-74
2021/03/13 11:17:11;;;;;;;1.15;0.50;;;;;;;15.58;52.59;98632.31;6210689;23;20332;-74
2021/03/13 11:19:36;;;;;;;6.35;1.17;;;;;;;13.81;58.31;98603.09;6242068;23;20016;-74
2021/03/13 11:22:09;;;;;;;4.50;1.08;;;;;;;12.51;61.01;98616.06;6239781;23;20370;-75
2021/03/13 11:24:38;;;;;;;10.45;1.27;;;;;;;12.17;68.06;98623.94;6213096;23;20331;-75
2021/03/13 11:27:04;;;;;;;10.57;1.13;;;;;;;13.87;70.31;98639.44;6214392;22;20019;-75
2021/03/13 11:29:29;;;;;;;6.75;1.17;;;;;;;15.53;66.11;98627.81;6207575;23;20024;-74
2021/03/13 11:32:10;;;;;;;;;;;;;;;;;;;;;
2021/03/13 11:37:27;;;;;;;;;;;;;;;11.59;57.12;98664.19;6219059;23;20011;-73
2021/03/13 11:40:03;;;;;;;;;;;;;;;;;;;;;
2021/03/13 11:42:37;;;;;;;5.45;1.08;;;;;;;11.48;67.35;98638.22;6239559;23;20095;-74
2021/03/13 11:45:18;;;;;;;;;;;;;;;;;;;;;
2021/03/13 11:47:46;;;;;;;5.03;0.70;;;;;;;14.22;58.31;98622.72;6233894;23;20078;-73
2021/03/13 11:50:14;;;;;;;3.15;1.13;;;;;;;14.96;57.21;98645.13;6213539;23;20416;-74
2021/03/13 11:52:58;;;;;;;8.18;1.05;;;;;;;14.89;56.09;98633.88;6239445;23;20004;-75
2021/03/13 11:55:25;;;;;;;5.00;1.00;;;;;;;15.52;54.55;98634.47;6236837;23;20822;-73
2021/03/13 11:57:59;;;;;;;6.30;1.10;;;;;;;16.21;51.03;98631.16;6239456;23;20047;-74
2021/03/13 12:00:28;;;;;;;3.60;1.10;;;;;;;16.76;49.89;98634.31;6196463;23;20064;-75
2021/03/13 12:03:04;;;;;;;;;;;;;;;;;;;;;
2021/03/13 12:05:30;;;;;;;11.77;1.48;;;;;;;17.48;45.45;98657.56;6247602;23;20076;-74
2021/03/13 12:07:55;;;;;;;8.05;1.50;;;;;;;17.32;46.48;98657.56;6248432;23;20000;-75
2021/03/13 12:10:21;;;;;;;7.68;1.80;;;;;;;17.26;45.93;98666.13;6270122;22;20339;-74
2021/03/13 12:12:55;;;;;;;7.68;1.98;;;;;;;17.25;39.27;98656.22;6194026;23;20008;-75
2021/03/13 12:15:22;;;;;;;6.20;1.33;;;;;;;17.11;45.40;98666.88;6265341;22;20035;-73
2021/03/13 12:18:55;;;;;;;9.60;1.38;;;;;;;17.09;39.13;98631.31;6271118;22;20331;-79
2021/03/13 12:21:24;;;;;;;3.67;0.90;;;;;;;17.39;47.68;98666.03;6181903;23;20373;-76
2021/03/13 12:24:11;;;;;;;8.57;1.20;;;;;;;17.71;43.96;98672.41;6242613;23;20012;-73
2021/03/13 12:26:38;;;;;;;;;;;;;;;17.62;38.48;98660.72;6249427;23;20034;-74
2021/03/13 12:29:05;;;;;;;8.52;1.30;;;;;;;17.59;41.40;98659.44;6244085;22;19950;-76
2021/03/13 12:31:34;;;;;;;7.18;1.25;;;;;;;16.91;39.21;98679.75;6191059;23;20008;-76
2021/03/13 12:33:59;;;;;;;10.50;1.33;;;;;;;16.10;41.28;98677.69;6240598;23;20010;-77
2021/03/13 12:36:27;;;;;;;4.03;0.90;;;;;;;16.12;45.38;98656.09;6223412;23;20000;-76
2021/03/13 12:38:53;;;;;;;3.72;1.33;;;;;;;16.58;45.77;98678.75;6249234;23;20012;-75
2021/03/13 12:42:02;;;;;;;7.18;1.50;;;;;;;16.89;37.84;98673.75;6215966;23;20060;-74
2021/03/13 12:44:49;;;;;;;;;;;;;;;;;;;;;
2021/03/13 12:47:15;;;;;;;4.65;1.33;;;;;;;16.68;37.83;98677.47;6250439;23;20039;-76
2021/03/13 12:50:08;;;;;;;3.92;1.52;;;;;;;16.70;38.48;98641.25;6247657;23;19996;-76
2021/03/13 12:52:34;;;;;;;13.50;1.13;;;;;;;16.75;43.78;98647.31;6226269;23;20062;-76
2021/03/13 12:55:19;;;;;;;;;;;;;;;;;;;;;
2021/03/13 12:57:54;;;;;;;12.43;1.13;;;;;;;16.53;35.62;98692.81;6250366;23;20036;-74
2021/03/13 13:00:29;;;;;;;4.03;0.75;;;;;;;16.19;43.59;98650.81;6248451;23;20004;-75
2021/03/13 13:02:55;;;;;;;3.60;1.35;;;;;;;16.48;44.32;98684.75;6273229;22;20004;-74
2021/03/13 13:05:21;;;;;;;3.90;1.60;;;;;;;16.96;41.77;98686.97;6222965;23;20016;-75
2021/03/13 13:07:54;;;;;;;3.92;1.05;;;;;;;17.20;45.66;98692.41;6245145;23;20068;-74
2021/03/13 13:10:20;;;;;;;3.72;1.02;;;;;;;17.66;43.24;98680.94;6245605;23;20030;-72
2021/03/13 13:12:53;;;;;;;7.40;0.77;;;;;;;17.77;43.09;98695.03;6194309;23;20008;-71